Time;durP1;ratioP1;P1;durP2;ratioP2;P2;SDS_P1;SDS_P2;PMS_P1;PMS_P2;Temp;Humidity;BMP_temperature;BMP_pressure;BME280_temperature;BME280_humidity;BME280_pressure;Samples;Min_cycle;Max_cycle;Signal;HPM_P1;HPM_P2
2022/03/23 00:01:53;;;;;;;19.13;17.10;;;6.60;1.00;7.00;101863.00;;;;5064497;28;20462;-74
2022/03/23 00:04:22;;;;;;;23.63;18.37;;;6.70;1.00;6.90;101863.00;;;;5064025;28;20474;-77
2022/03/23 00:06:51;;;;;;;23.23;18.40;;;6.80;1.00;6.70;101873.00;;;;5065009;28;20454;-74
2022/03/23 00:09:20;;;;;;;19.17;16.67;;;6.30;1.00;6.90;101878.00;;;;5067769;28;20493;-74
2022/03/23 00:11:48;;;;;;;22.80;18.30;;;6.30;1.00;6.90;101857.00;;;;5068673;28;20443;-73
2022/03/23 00:14:17;;;;;;;19.97;16.00;;;6.30;1.00;6.90;101875.00;;;;5063976;28;20455;-74
2022/03/23 00:16:45;;;;;;;23.47;17.70;;;6.30;1.00;6.90;101875.00;;;;5063059;28;20488;-74
2022/03/23 00:19:14;;;;;;;19.67;17.60;;;6.30;1.00;6.90;101861.00;;;;5062376;28;20486;-72
2022/03/23 00:21:42;;;;;;;23.20;19.10;;;6.30;1.00;6.80;101874.00;;;;5062729;28;20853;-72
2022/03/23 00:24:12;;;;;;;24.30;18.63;;;6.30;1.00;6.90;101883.00;;;;5065082;28;20455;-74
2022/03/23 00:26:41;;;;;;;21.43;17.10;;;6.30;1.00;6.90;101883.00;;;;5053859;28;20469;-73
2022/03/23 00:29:10;;;;;;;26.03;20.00;;;6.50;1.00;7.00;101891.00;;;;5079170;28;20548;-74
2022/03/23 00:31:38;;;;;;;19.97;17.77;;;6.30;1.00;6.70;101863.00;;;;5067477;28;20460;-74
2022/03/23 00:34:06;;;;;;;20.40;18.23;;;6.20;1.00;6.60;101873.00;;;;5064918;28;20457;-74
2022/03/23 00:36:34;;;;;;;27.73;18.00;;;6.10;1.00;6.50;101865.00;;;;5064050;28;20457;-74
2022/03/23 00:39:03;;;;;;;23.77;18.50;;;6.10;1.00;6.40;101862.00;;;;5063196;28;21401;-74
2022/03/23 00:41:35;;;;;;;21.63;18.83;;;6.00;1.00;6.40;101872.00;;;;5063475;28;20447;-74
2022/03/23 00:44:03;;;;;;;21.53;17.53;;;5.90;1.00;6.30;101873.00;;;;5077565;28;20443;-74
2022/03/23 00:46:31;;;;;;;27.37;18.53;;;5.80;1.00;6.20;101863.00;;;;5064091;28;20465;-74
2022/03/23 00:49:00;;;;;;;19.07;17.03;;;5.80;1.00;6.40;101873.00;;;;5075634;28;20493;-75
2022/03/23 00:51:29;;;;;;;19.40;16.37;;;5.80;1.00;6.50;101878.00;;;;5061134;28;20483;-73
2022/03/23 00:53:58;;;;;;;20.00;17.37;;;5.80;1.00;6.40;101877.00;;;;5051456;28;20504;-74
2022/03/23 00:56:26;;;;;;;20.40;16.20;;;5.80;1.00;6.20;101859.00;;;;5061438;28;20664;-74
2022/03/23 00:58:56;;;;;;;20.90;17.23;;;5.80;1.00;6.10;101877.00;;;;5063059;28;20605;-75
2022/03/23 01:01:24;;;;;;;20.73;15.37;;;5.70;1.00;6.10;101872.00;;;;5064654;28;20453;-75
2022/03/23 01:03:53;;;;;;;17.53;14.07;;;5.70;1.00;6.10;101879.00;;;;5063461;28;20459;-75
2022/03/23 01:06:21;;;;;;;20.07;14.83;;;5.70;1.00;6.10;101853.00;;;;5065304;28;20484;-75
2022/03/23 01:08:50;;;;;;;19.77;14.33;;;5.80;1.00;6.40;101860.00;;;;5066659;28;20988;-76
2022/03/23 01:11:20;;;;;;;19.17;15.43;;;5.70;1.00;6.30;101865.00;;;;5066728;28;20644;-75
2022/03/23 01:13:48;;;;;;;24.13;16.77;;;5.80;1.00;6.20;101835.00;;;;5066596;28;20964;-74
2022/03/23 01:16:18;;;;;;;22.57;17.40;;;5.70;1.00;6.40;101876.00;;;;5067065;28;20448;-74
2022/03/23 01:18:47;;;;;;;19.13;15.53;;;5.80;1.00;6.50;101876.00;;;;5066781;28;20511;-74
2022/03/23 01:21:16;;;;;;;18.37;16.40;;;5.80;1.00;6.50;101865.00;;;;5065378;28;20515;-74
2022/03/23 01:23:46;;;;;;;22.60;17.00;;;5.80;1.00;6.50;101878.00;;;;5063244;28;20455;-74
2022/03/23 01:26:14;;;;;;;20.13;16.40;;;5.80;1.00;6.40;101874.00;;;;5062127;28;20968;-74
2022/03/23 01:28:42;;;;;;;19.90;15.10;;;5.80;1.00;6.40;101854.00;;;;5061037;28;20890;-74
2022/03/23 01:31:11;;;;;;;24.40;17.77;;;5.80;1.00;6.30;101873.00;;;;5061835;28;20963;-74
2022/03/23 01:33:41;;;;;;;20.73;16.60;;;5.70;1.00;6.20;101862.00;;;;5062705;28;20542;-74
2022/03/23 01:36:10;;;;;;;19.80;16.47;;;5.70;1.00;6.20;101862.00;;;;5062142;28;20582;-72
2022/03/23 01:38:39;;;;;;;18.93;16.57;;;5.60;1.00;5.90;101857.00;;;;5060265;28;20844;-72
2022/03/23 01:41:07;;;;;;;20.00;16.50;;;5.50;1.00;6.00;101871.00;;;;5075197;28;20587;-72
2022/03/23 01:43:36;;;;;;;22.87;16.10;;;5.40;1.00;6.10;101858.00;;;;5062395;28;20443;-72
2022/03/23 01:46:04;;;;;;;19.87;15.30;;;5.40;1.00;6.00;101864.00;;;;5062027;28;20973;-73
2022/03/23 01:48:32;;;;;;;19.43;17.00;;;5.40;1.00;6.00;101860.00;;;;5061004;28;20501;-73
2022/03/23 01:51:03;;;;;;;28.87;21.03;;;5.40;1.00;5.90;101871.00;;;;5061202;28;21064;-73
2022/03/23 01:53:32;;;;;;;22.83;16.70;;;5.40;1.00;6.00;101851.00;;;;5059404;28;20484;-73
2022/03/23 01:56:01;;;;;;;26.00;17.90;;;5.40;1.00;5.90;101869.00;;;;5063006;28;20524;-73
2022/03/23 01:58:29;;;;;;;23.97;18.57;;;5.30;1.00;5.80;101873.00;;;;5063108;28;20478;-73
2022/03/23 02:01:00;;;;;;;26.40;18.27;;;5.60;1.00;5.90;101873.00;;;;5065634;28;20902;-73
2022/03/23 02:03:29;;;;;;;25.87;19.27;;;5.30;1.00;5.90;101862.00;;;;5066370;28;20482;-74
2022/03/23 02:05:57;;;;;;;30.43;21.07;;;5.30;1.00;5.60;101869.00;;;;5065902;28;20436;-73
2022/03/23 02:08:27;;;;;;;27.00;19.50;;;5.20;1.00;5.60;101876.00;;;;5054925;28;20451;-73
2022/03/23 02:10:56;;;;;;;29.30;21.03;;;5.10;1.00;5.40;101870.00;;;;5062133;28;20455;-73
2022/03/23 02:13:33;;;;;;;26.07;19.43;;;5.10;1.00;5.40;101861.00;;;;5064760;28;20833;-73
2022/03/23 02:16:02;;;;;;;23.80;18.97;;;5.20;1.00;5.30;101863.00;;;;5063092;28;20455;-73
2022/03/23 02:18:31;;;;;;;24.63;19.20;;;4.90;1.00;5.40;101871.00;;;;5061720;28;20467;-73
2022/03/23 02:21:00;;;;;;;24.87;18.43;;;4.80;1.00;5.30;101872.00;;;;5068034;28;20549;-73
2022/03/23 02:23:30;;;;;;;21.53;17.23;;;4.90;1.00;5.20;101869.00;;;;5061891;28;20462;-73
2022/03/23 02:26:02;;;;;;;22.10;17.80;;;4.80;1.00;5.20;101872.00;;;;5064340;28;20466;-73
2022/03/23 02:28:32;;;;;;;21.97;16.60;;;4.80;1.00;5.10;101870.00;;;;5060306;28;20502;-72
2022/03/23 02:31:01;;;;;;;18.53;15.20;;;4.70;1.00;5.20;101862.00;;;;5063367;28;20499;-73
2022/03/23 02:33:30;;;;;;;16.73;13.87;;;4.70;1.00;5.40;101872.00;;;;5064683;28;20801;-73
2022/03/23 02:35:58;;;;;;;17.43;14.20;;;4.70;1.00;5.30;101856.00;;;;5074462;28;20473;-74
2022/03/23 02:38:27;;;;;;;16.50;14.63;;;4.80;1.00;5.20;101870.00;;;;5093679;28;20478;-73
2022/03/23 02:40:58;;;;;;;23.93;15.83;;;4.80;1.00;5.20;101869.00;;;;5083571;28;20879;-73
2022/03/23 02:43:26;;;;;;;21.77;15.40;;;4.70;1.00;5.20;101865.00;;;;5065357;28;20454;-73
2022/03/23 02:45:54;;;;;;;22.67;16.60;;;4.70;1.00;5.10;101861.00;;;;5068886;28;20459;-73
2022/03/23 02:48:22;;;;;;;17.20;14.73;;;4.70;1.00;5.00;101870.00;;;;5069165;28;20455;-73
2022/03/23 02:50:51;;;;;;;14.17;12.60;;;4.60;1.00;5.20;101845.00;;;;5064531;28;20520;-73
2022/03/23 03:01:55;;;;;;;18.03;13.60;;;4.60;1.00;5.20;101869.00;;;;5088562;28;20466;-73
2022/03/23 03:04:24;;;;;;;16.13;12.97;;;4.60;1.00;5.00;101861.00;;;;5069621;28;20443;-73
2022/03/23 03:06:53;;;;;;;14.60;12.87;;;4.60;1.00;5.10;101869.00;;;;5070166;28;20478;-73
2022/03/23 03:09:21;;;;;;;15.97;12.43;;;4.60;1.00;5.10;101865.00;;;;5065537;28;21000;-73
2022/03/23 03:11:51;;;;;;;18.60;13.20;;;4.60;1.00;5.10;101875.00;;;;5067662;28;20562;-73
2022/03/23 03:14:19;;;;;;;20.50;13.47;;;4.60;1.00;5.10;101871.00;;;;5079283;28;21060;-74
2022/03/23 03:16:48;;;;;;;19.93;14.30;;;4.60;1.00;5.00;101870.00;;;;5071060;28;20876;-73
2022/03/23 03:19:16;;;;;;;16.10;13.23;;;4.60;1.00;5.10;101874.00;;;;5083433;28;20466;-73
2022/03/23 03:21:45;;;;;;;16.90;13.30;;;4.60;1.00;5.10;101862.00;;;;5103289;28;20468;-73
2022/03/23 03:24:13;;;;;;;17.60;14.00;;;4.60;1.00;5.10;101858.00;;;;5090608;28;20456;-72
2022/03/23 03:26:41;;;;;;;14.80;12.90;;;4.60;1.00;5.00;101873.00;;;;5090064;28;20450;-72
2022/03/23 03:29:11;;;;;;;20.00;14.00;;;4.60;1.00;5.00;101880.00;;;;5071716;28;20477;-72
2022/03/23 03:36:13;;;;;;;16.23;14.40;;;4.60;1.00;4.80;101872.00;;;;5066836;28;20457;-72
2022/03/23 03:38:42;;;;;;;15.90;13.40;;;4.40;1.00;4.90;101876.00;;;;5067485;28;21013;-72
2022/03/23 03:41:11;;;;;;;14.03;12.50;;;4.40;1.00;5.00;101897.00;;;;5067121;28;20482;-72
2022/03/23 03:43:40;;;;;;;16.97;12.50;;;4.40;1.00;5.10;101879.00;;;;5082782;28;20457;-72
2022/03/23 03:46:11;;;;;;;17.80;13.73;;;4.40;1.00;5.10;101894.00;;;;5064899;28;20450;-72
2022/03/23 03:48:40;;;;;;;17.10;13.10;;;4.50;1.00;5.00;101870.00;;;;5065482;28;20486;-72
2022/03/23 03:51:10;;;;;;;21.40;14.00;;;4.50;1.00;4.80;101895.00;;;;5084362;28;20458;-73
2022/03/23 03:53:39;;;;;;;16.77;13.50;;;4.40;1.00;4.70;101897.00;;;;5080167;28;20447;-73
2022/03/23 03:56:09;;;;;;;16.03;13.93;;;4.30;1.00;4.60;101862.00;;;;5080657;28;20480;-73
2022/03/23 03:58:38;;;;;;;16.30;13.93;;;4.20;1.00;4.60;101889.00;;;;5077034;28;20469;-72
2022/03/23 04:01:07;;;;;;;15.77;13.30;;;4.20;1.00;4.60;101894.00;;;;5076514;28;20501;-72
2022/03/23 04:03:37;;;;;;;22.87;14.67;;;4.10;1.00;4.40;101898.00;;;;5079015;28;20719;-72
2022/03/23 04:06:07;;;;;;;17.00;13.50;;;4.00;1.00;4.50;101887.00;;;;5076186;28;20471;-73
2022/03/23 04:08:36;;;;;;;21.40;14.03;;;4.00;1.00;4.60;101899.00;;;;5076103;28;20483;-72
2022/03/23 04:11:05;;;;;;;15.50;13.50;;;4.10;1.00;4.60;101896.00;;;;5076250;28;20455;-72
2022/03/23 04:13:33;;;;;;;20.30;13.53;;;4.10;1.00;4.70;101894.00;;;;5067849;28;20463;-72
2022/03/23 04:16:02;;;;;;;16.30;13.83;;;4.10;1.00;4.70;101894.00;;;;5065438;28;20970;-72
2022/03/23 04:18:31;;;;;;;18.37;14.10;;;4.10;1.00;4.70;101894.00;;;;5063825;28;21123;-72
2022/03/23 04:21:01;;;;;;;15.60;13.33;;;4.20;1.00;4.60;101893.00;;;;5067077;28;20479;-73
2022/03/23 04:23:34;;;;;;;15.47;13.23;;;4.10;1.00;4.40;101878.00;;;;5064926;28;20762;-73
2022/03/23 04:26:03;;;;;;;22.00;14.20;;;4.00;1.00;4.40;101886.00;;;;5079551;28;20524;-73
2022/03/23 04:28:31;;;;;;;18.20;13.60;;;4.00;1.00;4.30;101908.00;;;;5073026;28;20471;-73
2022/03/23 04:31:01;;;;;;;19.23;14.00;;;3.90;1.00;4.30;101901.00;;;;5076379;28;20467;-73
2022/03/23 04:33:29;;;;;;;21.90;14.67;;;3.80;1.00;4.30;101877.00;;;;5072449;28;21344;-72
2022/03/23 04:35:57;;;;;;;16.83;13.90;;;3.80;1.00;4.40;101910.00;;;;5078393;28;20556;-73
2022/03/23 04:38:27;;;;;;;17.43;13.43;;;3.80;1.00;4.30;101922.00;;;;5079542;28;20466;-73
2022/03/23 04:40:57;;;;;;;17.70;13.50;;;3.90;1.00;4.20;101902.00;;;;5075058;28;20467;-73
2022/03/23 04:43:25;;;;;;;17.37;14.10;;;3.80;1.00;4.20;101885.00;;;;5080861;28;20990;-73
2022/03/23 04:45:54;;;;;;;16.17;13.53;;;3.70;1.00;4.10;101912.00;;;;5087641;28;20447;-72
2022/03/23 04:48:22;;;;;;;16.83;13.53;;;3.70;1.00;4.10;101922.00;;;;5081099;28;20492;-72
2022/03/23 04:50:51;;;;;;;18.70;13.77;;;3.70;1.00;4.10;101905.00;;;;5079649;28;20490;-71
2022/03/23 04:53:20;;;;;;;16.40;13.93;;;3.60;1.00;4.10;101924.00;;;;5082968;28;20454;-72
2022/03/23 04:55:49;;;;;;;16.73;13.60;;;3.60;1.00;4.10;101930.00;;;;5084669;28;20479;-72
2022/03/23 04:58:18;;;;;;;19.93;13.43;;;3.60;1.00;4.00;101910.00;;;;5074600;28;20487;-72
2022/03/23 05:00:46;;;;;;;15.77;13.57;;;3.60;1.00;4.00;101910.00;;;;5071613;28;20473;-72
2022/03/23 05:03:14;;;;;;;21.23;13.57;;;3.50;1.00;3.90;101909.00;;;;5087740;28;20509;-73
2022/03/23 05:05:44;;;;;;;16.47;13.97;;;3.50;1.00;3.90;101915.00;;;;5068789;28;20972;-71
2022/03/23 05:08:12;;;;;;;17.60;14.07;;;3.50;1.00;3.90;101890.00;;;;5069274;28;20509;-72
2022/03/23 05:10:40;;;;;;;22.40;13.47;;;3.40;1.00;3.90;101889.00;;;;5080609;28;20451;-72
2022/03/23 05:13:11;;;;;;;21.93;14.27;;;3.40;1.00;3.90;101909.00;;;;5088856;28;20454;-72
2022/03/23 05:15:39;;;;;;;17.03;13.60;;;3.40;1.00;3.90;101932.00;;;;5079729;28;20478;-72
2022/03/23 05:18:08;;;;;;;14.93;12.00;;;3.40;1.00;3.80;101918.00;;;;5094546;28;20489;-71
2022/03/23 05:20:36;;;;;;;19.37;14.90;;;3.30;1.00;3.90;101928.00;;;;5082423;28;20447;-72
2022/03/23 05:23:05;;;;;;;17.00;12.33;;;3.30;1.00;3.90;101918.00;;;;5067654;28;21267;-72
2022/03/23 05:25:33;;;;;;;13.33;11.97;;;3.30;1.00;3.80;101926.00;;;;5064240;28;20454;-71
2022/03/23 05:28:02;;;;;;;19.20;13.10;;;3.30;1.00;3.90;101933.00;;;;5065142;28;20455;-72
2022/03/23 05:30:31;;;;;;;23.17;13.00;;;3.40;1.00;3.90;101928.00;;;;5064749;28;20566;-72
2022/03/23 05:32:59;;;;;;;15.07;12.70;;;3.40;1.00;3.90;101917.00;;;;5064259;28;20451;-71
2022/03/23 05:35:28;;;;;;;24.40;13.50;;;3.40;1.00;4.00;101902.00;;;;5063193;28;20462;-71
2022/03/23 05:37:56;;;;;;;21.50;14.33;;;3.40;1.00;4.00;101922.00;;;;5064973;28;20468;-73
2022/03/23 05:40:25;;;;;;;18.03;13.50;;;3.50;1.00;4.10;101920.00;;;;5066782;28;20459;-73
2022/03/23 05:42:53;;;;;;;24.77;15.03;;;3.70;1.00;4.20;101916.00;;;;5075127;28;20490;-73
2022/03/23 05:45:24;;;;;;;19.60;15.20;;;3.60;1.00;4.20;101933.00;;;;5066682;28;20469;-73
2022/03/23 05:47:56;;;;;;;20.60;14.57;;;3.70;1.00;4.30;101925.00;;;;5062622;28;20490;-73
2022/03/23 05:50:24;;;;;;;21.43;14.97;;;3.80;1.00;4.40;101912.00;;;;5065160;28;21022;-73
2022/03/23 05:52:53;;;;;;;27.63;16.00;;;4.20;1.00;4.50;101932.00;;;;5062987;28;20948;-72
2022/03/23 05:55:21;;;;;;;25.47;15.47;;;3.90;1.00;4.60;101900.00;;;;5063823;28;21179;-72
2022/03/23 05:57:49;;;;;;;25.27;15.40;;;4.00;1.00;4.70;101929.00;;;;5065971;28;20470;-73
2022/03/23 06:00:19;;;;;;;20.00;14.50;;;4.10;1.00;4.80;101925.00;;;;5063078;28;20481;-73
2022/03/23 06:02:49;;;;;;;23.93;15.10;;;4.20;1.00;4.80;101907.00;;;;5062137;28;20482;-73
2022/03/23 06:05:19;;;;;;;28.60;15.90;;;4.30;1.00;4.80;101929.00;;;;5061378;28;20502;-73
2022/03/23 06:07:48;;;;;;;30.63;15.77;;;4.30;1.00;4.70;101929.00;;;;5063147;28;20813;-73
2022/03/23 06:10:16;;;;;;;26.37;15.53;;;4.40;1.00;5.00;101906.00;;;;5062096;28;20489;-72
2022/03/23 06:12:45;;;;;;;36.43;16.13;;;4.70;1.00;5.00;101910.00;;;;5062722;28;20534;-73
2022/03/23 06:15:13;;;;;;;31.47;16.70;;;4.50;1.00;5.10;101931.00;;;;5061500;28;21471;-73
2022/03/23 06:17:42;;;;;;;19.63;14.47;;;4.60;1.00;5.30;101926.00;;;;5062429;28;20477;-73
2022/03/23 06:20:11;;;;;;;22.17;14.60;;;4.70;1.00;5.40;101929.00;;;;5068549;28;20490;-73
2022/03/23 06:22:41;;;;;;;21.17;14.90;;;4.90;1.00;5.60;101902.00;;;;5076657;28;20475;-73
2022/03/23 06:25:10;;;;;;;18.40;15.10;;;5.00;1.00;5.60;101933.00;;;;5062298;28;20454;-73
2022/03/23 06:27:39;;;;;;;21.93;15.87;;;5.10;1.00;5.90;101934.00;;;;5062547;28;20511;-74
2022/03/23 06:30:08;;;;;;;25.83;15.40;;;5.30;1.00;5.90;101938.00;;;;5065148;28;20477;-73
2022/03/23 06:32:37;;;;;;;26.13;15.50;;;5.40;1.00;6.10;101937.00;;;;5062750;28;20479;-74
2022/03/23 06:35:08;;;;;;;23.67;15.07;;;5.50;1.00;6.10;101928.00;;;;5065315;28;20482;-74
2022/03/23 06:37:36;;;;;;;22.23;15.40;;;5.60;1.00;6.10;101941.00;;;;5062598;28;20475;-74
2022/03/23 06:40:08;;;;;;;18.60;15.60;;;5.60;1.00;6.30;101946.00;;;;5062806;28;20559;-72
2022/03/23 06:42:37;;;;;;;20.80;15.80;;;5.70;1.00;6.40;101925.00;;;;5051979;28;20471;-73
2022/03/23 06:45:06;;;;;;;22.63;16.70;;;5.90;1.00;6.50;101956.00;;;;5063136;28;20477;-73
2022/03/23 06:47:35;;;;;;;25.57;16.87;;;6.00;1.00;6.50;101951.00;;;;5062487;28;20529;-73
2022/03/23 06:50:05;;;;;;;23.30;16.43;;;6.00;1.00;6.60;101963.00;;;;5062807;28;21275;-75
2022/03/23 06:52:33;;;;;;;23.70;16.07;;;6.10;1.00;6.80;101963.00;;;;5063138;28;20467;-74
2022/03/23 06:55:02;;;;;;;17.17;15.37;;;6.30;1.00;6.70;101966.00;;;;5062009;28;20482;-73
2022/03/23 06:57:31;;;;;;;18.13;14.00;;;6.30;1.00;6.80;101961.00;;;;5060106;28;20500;-73
2022/03/23 07:00:01;;;;;;;17.30;13.10;;;6.40;1.00;7.00;101955.00;;;;5063002;28;20467;-73
2022/03/23 07:02:29;;;;;;;14.27;12.40;;;6.50;1.00;7.10;101952.00;;;;5061669;28;20471;-73
2022/03/23 07:04:58;;;;;;;15.53;13.00;;;6.60;1.00;7.20;101971.00;;;;5058971;28;20565;-74
2022/03/23 07:07:26;;;;;;;16.63;11.83;;;6.70;1.00;7.20;101938.00;;;;5061318;28;20458;-74
2022/03/23 07:09:54;;;;;;;14.37;12.13;;;6.80;1.00;7.30;101971.00;;;;5061158;28;20520;-74
2022/03/23 07:12:22;;;;;;;15.03;12.33;;;6.80;1.00;7.40;101968.00;;;;5064063;28;20450;-74
2022/03/23 07:14:52;;;;;;;16.40;12.23;;;6.90;1.00;7.50;101930.00;;;;5062724;28;20459;-74
2022/03/23 07:17:20;;;;;;;16.70;12.40;;;7.40;1.00;7.70;101968.00;;;;5062043;28;20810;-74
2022/03/23 07:19:49;;;;;;;16.70;11.70;;;7.20;1.00;7.70;101955.00;;;;5062381;28;20476;-74
2022/03/23 07:22:18;;;;;;;15.97;11.93;;;7.40;1.00;7.80;101968.00;;;;5064634;28;21001;-74
2022/03/23 07:24:46;;;;;;;15.03;11.60;;;7.40;1.00;7.90;101980.00;;;;5063524;28;20451;-74
2022/03/23 07:27:15;;;;;;;17.20;11.80;;;7.50;1.00;8.10;101970.00;;;;5064168;28;20453;-75
2022/03/23 07:29:49;;;;;;;15.87;12.13;;;7.60;1.00;8.10;101955.00;;;;5064063;28;21346;-73
2022/03/23 07:32:21;;;;;;;15.93;11.33;;;7.70;1.00;8.30;101973.00;;;;5063686;28;20455;-74
2022/03/23 07:34:50;;;;;;;13.60;11.43;;;7.90;1.00;8.30;101956.00;;;;5063288;28;20990;-74
2022/03/23 07:37:21;;;;;;;20.20;11.50;;;7.90;1.00;8.20;101964.00;;;;5060195;28;20448;-74
2022/03/23 07:39:50;;;;;;;14.03;11.23;;;7.90;1.00;8.20;101967.00;;;;5063916;28;20506;-74
2022/03/23 07:42:24;;;;;;;17.53;13.27;;;8.20;1.00;8.20;101976.00;;;;5061583;28;20962;-75
2022/03/23 07:44:54;;;;;;;18.50;11.87;;;7.90;1.00;8.20;101970.00;;;;5064241;28;20455;-75
2022/03/23 07:47:23;;;;;;;18.20;12.47;;;7.90;1.00;8.40;101968.00;;;;5070225;28;20457;-75
2022/03/23 07:49:52;;;;;;;13.50;11.37;;;8.00;1.00;8.60;101974.00;;;;5086051;28;20463;-75
2022/03/23 07:52:21;;;;;;;14.57;12.80;;;8.20;1.00;8.70;101967.00;;;;5100178;28;20469;-75
2022/03/23 07:54:49;;;;;;;16.40;14.20;;;8.40;1.00;8.70;101981.00;;;;5089887;28;20526;-75
2022/03/23 07:57:17;;;;;;;14.57;13.17;;;8.40;1.00;8.80;101977.00;;;;5073910;28;20467;-73
2022/03/23 07:59:46;;;;;;;18.27;14.33;;;8.50;1.00;8.90;101992.00;;;;5069619;28;20863;-76
2022/03/23 08:02:15;;;;;;;18.83;14.80;;;8.60;1.00;9.00;102006.00;;;;5061709;28;20482;-77
2022/03/23 08:04:45;;;;;;;18.23;16.10;;;8.70;1.00;9.20;101988.00;;;;5060727;28;20791;-77
2022/03/23 08:07:13;;;;;;;18.60;13.53;;;8.90;1.00;9.30;101987.00;;;;5062284;28;20454;-76
2022/03/23 08:09:41;;;;;;;17.67;14.33;;;9.00;1.00;9.30;101982.00;;;;5058866;28;20467;-76
2022/03/23 08:12:10;;;;;;;20.40;16.03;;;9.10;1.00;9.30;101988.00;;;;5060996;28;20953;-76
2022/03/23 08:14:39;;;;;;;15.73;14.13;;;9.10;1.00;9.40;101986.00;;;;5061786;28;20668;-75
2022/03/23 08:17:07;;;;;;;18.10;15.83;;;9.10;1.00;9.50;101989.00;;;;5059546;28;20455;-74
2022/03/23 08:19:35;;;;;;;16.70;14.90;;;9.20;1.00;9.60;101986.00;;;;5061370;28;21065;-76
2022/03/23 08:22:05;;;;;;;18.07;14.83;;;9.30;1.00;9.60;101981.00;;;;5062216;28;20949;-78
2022/03/23 08:24:34;;;;;;;18.33;15.13;;;9.70;1.00;9.70;101992.00;;;;5050576;28;20912;-74
2022/03/23 08:27:02;;;;;;;20.03;16.33;;;9.50;1.00;9.80;101994.00;;;;5059447;28;20451;-73
2022/03/23 08:29:31;;;;;;;18.10;15.20;;;9.50;1.00;9.80;101991.00;;;;5064001;28;20566;-74
2022/03/23 08:31:59;;;;;;;16.47;13.90;;;9.60;1.00;9.90;101990.00;;;;5065175;28;20454;-73
2022/03/23 08:34:27;;;;;;;17.57;15.30;;;10.00;1.00;10.00;101993.00;;;;5064001;28;20899;-73
2022/03/23 08:36:58;;;;;;;17.00;14.03;;;9.80;1.00;10.10;101993.00;;;;5064040;28;20462;-74
2022/03/23 08:39:28;;;;;;;17.23;14.90;;;9.90;1.00;10.30;101987.00;;;;5073660;28;20475;-76
2022/03/23 08:41:57;;;;;;;19.43;15.93;;;10.10;1.00;10.30;101989.00;;;;5060674;28;20467;-74
2022/03/23 08:44:25;;;;;;;18.83;16.30;;;10.10;1.00;10.30;101981.00;;;;5062401;28;20470;-73
2022/03/23 08:46:53;;;;;;;18.97;15.80;;;10.20;1.00;10.40;101996.00;;;;5062666;28;20984;-74
2022/03/23 08:49:25;;;;;;;20.80;15.87;;;10.30;1.00;10.60;101987.00;;;;5081759;28;20850;-73
2022/03/23 08:51:53;;;;;;;16.43;14.43;;;10.40;1.00;10.70;101987.00;;;;5067859;28;20512;-73
2022/03/23 08:54:22;;;;;;;18.33;15.63;;;10.60;1.00;10.80;101980.00;;;;5067957;28;20542;-73
2022/03/23 08:56:52;;;;;;;20.30;17.80;;;10.70;1.00;10.90;101985.00;;;;5066497;28;20450;-74
2022/03/23 08:59:20;;;;;;;17.87;15.93;;;10.80;1.00;10.90;101972.00;;;;5060516;28;20483;-73
2022/03/23 09:01:49;;;;;;;18.73;16.63;;;10.80;1.00;11.00;101981.00;;;;5078876;28;20463;-73
2022/03/23 09:04:18;;;;;;;18.10;15.10;;;11.00;1.00;11.10;101988.00;;;;5066746;28;21003;-74
2022/03/23 09:06:46;;;;;;;23.93;15.60;;;11.00;1.00;11.20;101989.00;;;;5062361;28;21026;-74
2022/03/23 09:09:14;;;;;;;21.83;16.70;;;11.10;1.00;11.30;101959.00;;;;5064090;28;20474;-74
2022/03/23 09:11:43;;;;;;;17.73;15.40;;;11.00;1.00;11.40;101980.00;;;;5067364;28;21061;-75
2022/03/23 09:14:13;;;;;;;20.30;15.63;;;11.30;1.00;11.40;101971.00;;;;5067372;28;20462;-73
2022/03/23 09:16:43;;;;;;;17.63;15.33;;;11.40;1.00;11.60;101974.00;;;;5072042;28;20451;-74
2022/03/23 09:19:14;;;;;;;21.53;16.73;;;11.50;1.00;11.70;101949.00;;;;5073435;28;20578;-75
2022/03/23 09:21:43;;;;;;;18.17;15.60;;;11.70;1.00;11.70;101978.00;;;;5057171;28;20458;-75
2022/03/23 09:24:11;;;;;;;17.60;15.80;;;11.70;1.00;11.80;101980.00;;;;5062327;28;21188;-74
2022/03/23 09:26:40;;;;;;;16.23;14.50;;;11.80;1.00;11.90;101972.00;;;;5060164;28;20462;-77
2022/03/23 09:29:08;;;;;;;18.47;16.10;;;11.90;1.00;12.00;101959.00;;;;5064711;28;20470;-75
2022/03/23 09:31:38;;;;;;;19.83;16.77;;;12.00;1.00;12.10;101983.00;;;;5078961;28;20474;-75
2022/03/23 09:34:07;;;;;;;19.30;17.20;;;12.10;1.00;12.20;101974.00;;;;5062170;28;21001;-74
2022/03/23 09:39:21;;;;;;;24.07;17.70;;;12.30;1.00;12.30;101974.00;;;;5057486;28;20478;-75
2022/03/23 09:41:50;;;;;;;21.80;16.10;;;12.40;1.00;12.40;101967.00;;;;5076552;28;20478;-76
2022/03/23 09:44:18;;;;;;;21.33;17.50;;;12.50;1.00;12.50;101975.00;;;;5061431;28;20485;-76
2022/03/23 09:46:48;;;;;;;21.00;18.10;;;12.50;1.00;12.60;101967.00;;;;5063786;28;21142;-76
2022/03/23 09:49:16;;;;;;;20.33;16.47;;;12.70;1.00;12.70;101983.00;;;;5064079;28;20486;-76
2022/03/23 09:51:51;;;;;;;19.80;17.27;;;12.80;1.00;12.90;101971.00;;;;5065607;28;21047;-76
2022/03/23 09:54:19;;;;;;;20.13;15.83;;;13.00;1.00;13.00;101978.00;;;;5066811;28;20442;-77
2022/03/23 09:56:51;;;;;;;18.90;16.93;;;13.10;1.00;13.10;101975.00;;;;5082813;28;20558;-78
2022/03/23 09:59:19;;;;;;;17.67;15.83;;;13.20;1.00;13.20;101964.00;;;;5067231;28;20486;-77
2022/03/23 10:02:57;;;;;;;22.13;17.47;;;13.30;1.00;13.30;101969.00;;;;5064297;28;21225;-78
2022/03/23 10:05:59;;;;;;;24.27;17.93;;;13.50;1.00;13.40;101958.00;;;;5050593;28;20502;-78
2022/03/23 10:08:55;;;;;;;20.10;16.37;;;13.60;1.00;13.50;101966.00;;;;5063083;28;20453;-78
2022/03/23 10:12:24;;;;;;;17.50;15.67;;;13.70;1.00;13.60;101965.00;;;;5064053;28;20491;-76
2022/03/23 10:15:59;;;;;;;17.67;15.80;;;13.80;1.00;13.80;101962.00;;;;5003072;28;20455;-79
2022/03/23 10:18:53;;;;;;;22.50;16.57;;;14.00;1.00;13.90;101951.00;;;;5085050;28;20455;-76
2022/03/23 10:21:25;;;;;;;21.53;15.83;;;14.10;1.00;14.00;101956.00;;;;5081034;28;20466;-74
2022/03/23 10:24:33;;;;;;;19.13;15.30;;;14.30;1.00;14.20;101967.00;;;;5081434;28;20491;-76
2022/03/23 10:27:12;;;;;;;17.43;15.53;;;14.50;1.00;14.40;101966.00;;;;5092371;28;20453;-75
2022/03/23 10:29:44;;;;;;;20.40;14.90;;;14.60;1.00;14.40;101959.00;;;;5088575;28;20511;-75
2022/03/23 10:32:14;;;;;;;20.10;14.83;;;14.70;1.00;14.60;101957.00;;;;5067229;28;20447;-75
2022/03/23 10:34:48;;;;;;;14.63;13.13;;;14.90;1.00;14.70;101955.00;;;;5065421;28;20455;-75
2022/03/23 10:37:26;;;;;;;14.67;13.27;;;14.90;1.00;14.80;101957.00;;;;5050837;28;20961;-74
2022/03/23 10:39:56;;;;;;;17.63;14.97;;;15.10;1.00;14.90;101954.00;;;;5062107;28;20478;-75
2022/03/23 10:42:27;;;;;;;16.40;13.70;;;15.10;1.00;14.90;101956.00;;;;5062912;28;20976;-75
2022/03/23 10:45:10;;;;;;;15.37;13.97;;;15.10;1.00;15.00;101952.00;;;;5063542;28;20882;-75
2022/03/23 10:47:40;;;;;;;14.10;12.83;;;15.30;1.00;15.10;101948.00;;;;5062677;28;20455;-75
2022/03/23 10:50:17;;;;;;;14.23;12.63;;;15.30;1.00;15.20;101943.00;;;;5062204;28;20486;-73
2022/03/23 10:52:58;;;;;;;17.60;13.70;;;15.40;1.00;15.30;101927.00;;;;5070938;28;20450;-74
2022/03/23 10:55:29;;;;;;;13.10;11.90;;;15.60;1.00;15.50;101932.00;;;;5086042;28;20450;-74
2022/03/23 11:04:56;;;;;;;13.83;12.50;;;16.00;1.00;15.80;101913.00;;;;5010371;23;20552;-84
2022/03/23 11:07:28;;;;;;;13.67;12.47;;;16.10;1.00;15.90;101912.00;;;;5001972;28;20485;-79
2022/03/23 11:16:04;;;;;;;15.10;13.60;;;16.40;1.00;16.20;101903.00;;;;4982030;28;20451;-82
2022/03/23 11:18:33;;;;;;;15.27;13.67;;;16.50;1.00;16.30;101892.00;;;;4981399;28;20474;-83
2022/03/23 11:21:02;;;;;;;17.53;14.33;;;16.60;1.00;16.40;101915.00;;;;4982850;28;20469;-83
2022/03/23 11:23:33;;;;;;;16.57;14.93;;;16.70;1.00;16.50;101909.00;;;;4987746;28;20472;-82
2022/03/23 11:26:07;;;;;;;14.10;12.70;;;16.80;1.00;16.60;101902.00;;;;4990215;28;20532;-84
2022/03/23 11:28:37;;;;;;;13.90;12.60;;;16.90;1.00;16.70;101900.00;;;;4982956;28;20464;-85
2022/03/23 11:31:10;;;;;;;14.37;12.17;;;17.00;1.00;16.80;101892.00;;;;4986303;28;20483;-83
2022/03/23 11:33:40;;;;;;;15.37;13.77;;;17.10;1.00;16.80;101909.00;;;;4985695;28;20495;-84